Time;durP1;ratioP1;P1;durP2;ratioP2;P2;SDS_P1;SDS_P2;PMS_P1;PMS_P2;Temp;Humidity;BMP_temperature;BMP_pressure;BME280_temperature;BME280_humidity;BME280_pressure;Samples;Min_cycle;Max_cycle;Signal;HPM_P1;HPM_P2
2021/09/09 00:01:25;;;;;;;15.00;13.40;;;16.40;99.90;;;;;;4993673;28;20543;-71
2021/09/09 00:03:53;;;;;;;21.30;15.73;;;16.40;99.90;;;;;;5011464;28;20564;-68
2021/09/09 00:06:21;;;;;;;16.60;14.75;;;16.50;99.90;;;;;;5012990;28;20046;-66
2021/09/09 00:08:48;;;;;;;17.83;14.23;;;16.40;99.90;;;;;;5013188;28;20134;-65
2021/09/09 00:11:16;;;;;;;15.35;13.25;;;16.40;99.90;;;;;;5012802;28;20459;-67
2021/09/09 00:13:43;;;;;;;16.50;13.18;;;16.40;99.90;;;;;;5013090;28;20050;-70
2021/09/09 00:16:12;;;;;;;17.88;12.32;;;16.50;99.90;;;;;;5011378;28;20046;-67
2021/09/09 00:18:40;;;;;;;15.18;11.98;;;16.40;99.90;;;;;;5012660;28;20057;-67
2021/09/09 00:21:10;;;;;;;15.52;12.05;;;16.50;99.90;;;;;;5013070;28;20062;-65
2021/09/09 00:23:37;;;;;;;16.48;12.50;;;16.50;99.90;;;;;;5013232;28;20061;-66
2021/09/09 00:26:06;;;;;;;15.30;13.70;;;16.40;99.90;;;;;;5011109;28;20053;-68
2021/09/09 00:28:33;;;;;;;16.30;13.15;;;16.40;99.90;;;;;;5012342;28;20050;-69
2021/09/09 00:31:01;;;;;;;18.15;14.23;;;16.40;99.90;;;;;;5013034;28;20132;-69
2021/09/09 00:33:28;;;;;;;13.50;11.45;;;16.40;99.90;;;;;;5012725;28;20064;-68
2021/09/09 00:35:55;;;;;;;15.07;12.60;;;16.40;99.90;;;;;;5011130;28;20533;-71
2021/09/09 00:38:22;;;;;;;14.68;12.27;;;16.40;99.90;;;;;;5012556;28;20103;-70
2021/09/09 00:40:49;;;;;;;14.00;12.60;;;16.40;99.90;;;;;;5012587;28;20049;-66
2021/09/09 00:43:16;;;;;;;14.60;12.50;;;16.30;99.90;;;;;;5012826;28;20076;-70
2021/09/09 00:45:52;;;;;;;18.10;13.38;;;16.30;99.90;;;;;;5012448;28;20049;-66
2021/09/09 00:48:19;;;;;;;13.15;10.75;;;16.30;99.90;;;;;;5010812;28;20046;-72
2021/09/09 00:50:47;;;;;;;14.10;11.57;;;16.30;99.90;;;;;;5012325;28;20050;-67
2021/09/09 00:53:14;;;;;;;13.23;11.82;;;16.30;99.90;;;;;;5011785;28;20062;-69
2021/09/09 00:55:41;;;;;;;16.88;11.52;;;16.30;99.90;;;;;;5012096;28;20053;-65
2021/09/09 00:58:08;;;;;;;12.18;10.93;;;16.30;99.90;;;;;;5009838;28;20054;-68
2021/09/09 01:00:37;;;;;;;14.27;11.55;;;16.30;99.90;;;;;;5011703;28;20073;-68
2021/09/09 01:03:08;;;;;;;12.57;10.75;;;16.30;99.90;;;;;;5022028;23;20085;-69
2021/09/09 01:05:36;;;;;;;15.32;10.63;;;16.40;99.90;;;;;;5011328;28;20069;-73
2021/09/09 01:08:04;;;;;;;12.50;11.13;;;16.30;99.90;;;;;;5010127;28;20054;-73
2021/09/09 01:10:33;;;;;;;13.32;9.98;;;16.30;99.90;;;;;;5011987;28;20041;-71
2021/09/09 01:13:00;;;;;;;23.75;12.02;;;16.30;99.90;;;;;;5012219;28;20057;-69
2021/09/09 01:15:27;;;;;;;13.10;11.23;;;16.30;99.90;;;;;;5012236;28;20052;-70
2021/09/09 01:17:54;;;;;;;13.10;11.52;;;16.30;99.90;;;;;;5010368;28;20112;-73
2021/09/09 01:20:21;;;;;;;15.73;11.07;;;16.30;99.90;;;;;;4993972;28;20041;-71
2021/09/09 01:22:48;;;;;;;14.00;10.98;;;16.30;99.90;;;;;;5011664;28;20391;-71
2021/09/09 01:25:15;;;;;;;12.00;10.85;;;16.20;99.90;;;;;;5012198;28;20107;-73
2021/09/09 01:27:42;;;;;;;12.52;11.23;;;16.20;99.90;;;;;;5011560;28;20147;-68
2021/09/09 01:30:09;;;;;;;13.70;12.15;;;16.20;99.90;;;;;;5010560;28;20049;-71
2021/09/09 01:32:37;;;;;;;15.73;10.32;;;16.20;99.90;;;;;;5011606;28;20470;-69
2021/09/09 01:35:04;;;;;;;13.32;11.15;;;16.20;99.90;;;;;;5011926;28;20049;-72
2021/09/09 01:37:31;;;;;;;12.70;9.98;;;16.20;99.90;;;;;;5011512;28;20112;-72
2021/09/09 01:39:58;;;;;;;13.30;11.02;;;16.20;99.90;;;;;;5009322;28;20384;-69
2021/09/09 01:42:25;;;;;;;12.13;10.82;;;16.20;99.90;;;;;;5011563;28;20050;-68
2021/09/09 01:44:52;;;;;;;16.30;10.38;;;16.20;99.90;;;;;;5011413;28;20054;-73
2021/09/09 01:47:19;;;;;;;11.88;9.93;;;16.20;99.90;;;;;;5011590;28;20045;-76
2021/09/09 01:49:46;;;;;;;11.27;10.13;;;16.20;99.90;;;;;;5011210;28;20050;-74
2021/09/09 01:52:13;;;;;;;14.02;10.57;;;16.20;99.90;;;;;;5010057;28;20600;-72
2021/09/09 01:54:40;;;;;;;15.18;11.57;;;16.20;99.90;;;;;;5011176;28;20054;-69
2021/09/09 01:57:07;;;;;;;9.95;8.95;;;16.20;99.90;;;;;;5010811;28;20046;-74
2021/09/09 01:59:34;;;;;;;11.57;9.63;;;16.20;99.90;;;;;;5011344;28;20053;-74
2021/09/09 02:02:01;;;;;;;15.63;10.75;;;16.20;99.90;;;;;;5009745;28;20137;-72
2021/09/09 02:04:29;;;;;;;11.40;9.23;;;16.20;99.90;;;;;;5011157;28;20121;-70
2021/09/09 02:06:56;;;;;;;10.48;9.10;;;16.20;99.90;;;;;;5011300;28;20058;-68
2021/09/09 02:09:23;;;;;;;10.13;9.13;;;16.20;99.90;;;;;;5010602;28;20542;-74
2021/09/09 02:11:50;;;;;;;13.80;10.73;;;16.20;99.90;;;;;;5009681;28;20053;-68
2021/09/09 02:14:17;;;;;;;15.10;9.95;;;16.20;99.90;;;;;;5010846;28;20050;-72
2021/09/09 02:16:44;;;;;;;11.95;8.95;;;16.20;99.90;;;;;;5011099;28;20069;-71
2021/09/09 02:19:11;;;;;;;10.38;9.20;;;16.20;99.90;;;;;;5011145;28;20090;-71
2021/09/09 02:21:38;;;;;;;10.85;9.73;;;16.20;99.90;;;;;;5010898;28;20046;-70
2021/09/09 02:24:05;;;;;;;9.30;8.18;;;16.20;99.90;;;;;;5009525;28;20096;-74
2021/09/09 02:26:32;;;;;;;10.77;9.10;;;16.20;99.90;;;;;;5010753;28;20053;-74
2021/09/09 02:28:59;;;;;;;11.50;8.70;;;16.20;99.90;;;;;;5010948;28;20399;-67
2021/09/09 02:31:26;;;;;;;11.93;9.60;;;16.20;99.90;;;;;;5011009;28;20088;-70
2021/09/09 02:33:53;;;;;;;10.80;9.63;;;16.20;99.90;;;;;;5009083;28;20475;-71
2021/09/09 02:36:20;;;;;;;10.35;9.05;;;16.10;99.90;;;;;;5010327;28;20068;-70
2021/09/09 02:38:47;;;;;;;11.60;8.77;;;16.20;99.90;;;;;;5010501;28;20054;-74
2021/09/09 02:41:13;;;;;;;9.73;8.55;;;16.10;99.90;;;;;;5010400;28;20041;-74
2021/09/09 02:43:40;;;;;;;9.48;8.57;;;16.10;99.90;;;;;;5010872;28;20073;-69
2021/09/09 02:46:07;;;;;;;12.38;9.52;;;16.00;99.90;;;;;;5008813;28;20082;-69
2021/09/09 02:48:34;;;;;;;11.10;9.50;;;16.00;99.90;;;;;;5010263;28;20447;-75
2021/09/09 02:51:01;;;;;;;12.05;9.25;;;15.90;99.90;;;;;;5010445;28;20046;-71
2021/09/09 02:53:28;;;;;;;11.57;9.30;;;15.90;99.90;;;;;;5009997;28;20121;-68
2021/09/09 02:55:55;;;;;;;11.50;10.10;;;15.90;99.90;;;;;;5008646;28;20460;-74
2021/09/09 02:58:22;;;;;;;11.45;10.35;;;15.80;99.90;;;;;;5010051;28;20053;-70
2021/09/09 03:00:49;;;;;;;10.05;8.73;;;15.80;99.90;;;;;;4992429;28;20061;-68
2021/09/09 03:03:16;;;;;;;11.35;9.73;;;15.70;99.90;;;;;;5009684;28;20058;-75
2021/09/09 03:05:43;;;;;;;12.25;9.98;;;15.70;99.90;;;;;;5010388;28;20128;-67
2021/09/09 03:08:10;;;;;;;11.07;8.93;;;15.60;99.90;;;;;;5008495;28;20041;-71
2021/09/09 03:10:37;;;;;;;12.73;9.70;;;15.60;99.90;;;;;;5010167;28;20046;-70
2021/09/09 03:13:05;;;;;;;15.20;10.50;;;15.60;99.90;;;;;;5010128;28;20049;-70
2021/09/09 03:15:31;;;;;;;11.07;9.18;;;15.60;99.90;;;;;;5010029;28;20050;-75
2021/09/09 03:17:58;;;;;;;13.40;9.55;;;15.50;99.90;;;;;;5008421;28;20046;-71
2021/09/09 03:20:25;;;;;;;11.00;9.55;;;15.50;99.90;;;;;;5010042;28;20046;-71
2021/09/09 03:22:52;;;;;;;10.18;8.90;;;15.40;99.90;;;;;;5014175;28;20124;-67
2021/09/09 03:25:19;;;;;;;12.68;9.00;;;15.40;99.90;;;;;;5013726;28;20081;-70
2021/09/09 03:27:46;;;;;;;11.05;9.88;;;15.40;99.90;;;;;;5013179;28;20108;-77
2021/09/09 03:30:13;;;;;;;10.48;9.25;;;15.30;99.90;;;;;;5011722;28;20579;-74
2021/09/09 03:32:40;;;;;;;12.80;10.43;;;15.30;99.90;;;;;;5013835;28;20099;-70
2021/09/09 03:35:07;;;;;;;11.15;9.57;;;15.30;99.90;;;;;;5013371;28;20054;-73
2021/09/09 03:37:34;;;;;;;9.77;8.55;;;15.30;99.90;;;;;;5012496;28;20099;-69
2021/09/09 03:40:02;;;;;;;12.27;11.00;;;15.20;99.90;;;;;;5011469;28;20049;-70
2021/09/09 03:42:29;;;;;;;12.10;9.30;;;15.20;99.90;;;;;;5013340;28;20142;-71
2021/09/09 03:44:56;;;;;;;12.40;9.98;;;15.20;99.90;;;;;;5013392;28;20077;-68
2021/09/09 03:47:23;;;;;;;11.93;10.73;;;15.20;99.90;;;;;;5013551;28;20042;-72
2021/09/09 03:49:50;;;;;;;21.27;12.05;;;15.20;99.90;;;;;;5011828;28;20410;-68
2021/09/09 03:52:18;;;;;;;13.35;10.45;;;15.30;99.90;;;;;;5013406;28;20119;-72
2021/09/09 03:54:45;;;;;;;14.32;10.85;;;15.30;99.90;;;;;;5013026;28;20173;-67
2021/09/09 03:57:12;;;;;;;13.82;9.85;;;15.30;99.90;;;;;;5012284;28;20069;-71
2021/09/09 03:59:39;;;;;;;10.50;9.32;;;15.30;99.90;;;;;;5012643;28;20054;-72
2021/09/09 04:02:06;;;;;;;11.00;9.50;;;15.30;99.90;;;;;;5010783;28;20404;-70
2021/09/09 04:04:33;;;;;;;11.23;9.70;;;15.30;99.90;;;;;;5012757;28;20065;-69
2021/09/09 04:07:00;;;;;;;10.45;8.30;;;15.30;99.90;;;;;;5012777;28;20108;-73
2021/09/09 04:09:27;;;;;;;10.27;9.15;;;15.40;99.90;;;;;;5012248;28;20121;-74
2021/09/09 04:11:54;;;;;;;12.90;8.93;;;15.40;99.90;;;;;;5010984;28;20104;-72
2021/09/09 04:14:21;;;;;;;11.43;8.63;;;15.40;99.90;;;;;;5012365;28;20161;-70
2021/09/09 04:16:48;;;;;;;11.45;10.18;;;15.50;99.90;;;;;;5012608;28;20145;-71
2021/09/09 04:19:15;;;;;;;12.80;9.93;;;15.50;99.90;;;;;;5012938;28;20120;-71
2021/09/09 04:21:42;;;;;;;9.82;8.93;;;15.50;99.90;;;;;;5013178;28;20337;-70
2021/09/09 04:24:09;;;;;;;12.00;10.63;;;15.60;99.90;;;;;;5010828;28;21015;-73
2021/09/09 04:26:36;;;;;;;11.48;10.27;;;15.60;99.90;;;;;;5012483;28;20049;-69
2021/09/09 04:29:06;;;;;;;12.95;9.95;;;15.60;99.90;;;;;;5013083;28;20046;-68
2021/09/09 04:31:34;;;;;;;12.10;9.30;;;15.70;99.90;;;;;;5012845;28;20522;-70
2021/09/09 04:34:01;;;;;;;11.07;9.43;;;15.70;99.90;;;;;;5009394;28;20053;-69
2021/09/09 04:36:28;;;;;;;12.07;9.45;;;15.70;99.90;;;;;;5012847;28;20468;-72
2021/09/09 04:38:55;;;;;;;9.95;8.90;;;15.80;99.90;;;;;;5012737;28;20357;-67
2021/09/09 04:41:22;;;;;;;10.80;8.95;;;15.80;99.90;;;;;;5012898;28;20100;-72
2021/09/09 04:43:49;;;;;;;10.35;7.80;;;15.80;99.90;;;;;;5011162;28;20127;-73
2021/09/09 04:46:17;;;;;;;10.90;8.68;;;15.80;99.90;;;;;;5012588;28;20045;-70
2021/09/09 04:48:44;;;;;;;9.15;7.85;;;15.80;99.90;;;;;;5012566;28;20341;-69
2021/09/09 04:51:11;;;;;;;9.35;8.00;;;15.80;99.90;;;;;;5012520;28;20390;-71
2021/09/09 04:53:38;;;;;;;8.38;7.45;;;15.80;99.90;;;;;;5012490;28;20050;-72
2021/09/09 04:56:05;;;;;;;11.13;7.97;;;15.90;99.90;;;;;;5010324;28;20057;-71
2021/09/09 04:58:32;;;;;;;9.15;7.03;;;15.90;99.90;;;;;;5011954;28;20099;-73
2021/09/09 05:00:59;;;;;;;8.80;6.55;;;15.90;99.90;;;;;;5012101;28;20090;-73
2021/09/09 05:03:26;;;;;;;6.63;6.00;;;16.00;99.90;;;;;;5011648;28;20149;-71
2021/09/09 05:05:53;;;;;;;7.85;6.30;;;16.00;99.90;;;;;;5010173;28;20057;-72
2021/09/09 05:08:20;;;;;;;7.90;6.80;;;16.00;99.90;;;;;;5011604;28;20049;-73
2021/09/09 05:10:47;;;;;;;7.72;5.88;;;16.10;99.90;;;;;;4991075;28;20555;-70
2021/09/09 05:13:14;;;;;;;7.47;6.65;;;16.10;99.90;;;;;;4992155;28;20050;-70
2021/09/09 05:15:41;;;;;;;7.70;6.90;;;16.10;99.90;;;;;;4992075;28;20473;-72
2021/09/09 05:18:08;;;;;;;8.48;6.93;;;16.10;99.90;;;;;;4991033;28;20101;-71
2021/09/09 05:20:35;;;;;;;10.80;7.00;;;16.20;99.90;;;;;;4992621;28;20050;-70
2021/09/09 05:23:02;;;;;;;7.85;6.47;;;16.20;99.90;;;;;;4992152;28;20054;-73
2021/09/09 05:25:29;;;;;;;8.93;7.03;;;16.20;99.90;;;;;;4991560;28;20050;-72
2021/09/09 05:27:56;;;;;;;8.05;6.97;;;16.20;99.90;;;;;;4989726;28;20109;-70
2021/09/09 05:30:23;;;;;;;10.93;6.57;;;16.30;99.90;;;;;;4991161;28;20043;-71
2021/09/09 05:32:50;;;;;;;6.80;5.60;;;16.30;99.90;;;;;;4991366;28;20484;-70
2021/09/09 05:35:17;;;;;;;7.88;6.50;;;16.30;99.90;;;;;;4991203;28;20077;-74
2021/09/09 05:37:44;;;;;;;6.70;5.88;;;16.40;99.90;;;;;;4991017;28;20534;-70
2021/09/09 05:40:11;;;;;;;6.35;5.45;;;16.40;99.90;;;;;;4989883;28;20108;-70
2021/09/09 05:42:38;;;;;;;7.20;6.50;;;16.40;99.90;;;;;;4991149;28;20042;-70
2021/09/09 05:45:06;;;;;;;6.13;5.38;;;16.50;99.90;;;;;;4990229;28;20050;-76
2021/09/09 05:47:33;;;;;;;5.80;5.20;;;16.50;99.90;;;;;;4991503;28;20054;-71
2021/09/09 05:50:00;;;;;;;5.78;4.50;;;16.60;99.90;;;;;;4989883;28;20047;-67
2021/09/09 05:52:27;;;;;;;6.00;4.90;;;16.70;99.90;;;;;;4991419;28;20054;-72
2021/09/09 05:54:54;;;;;;;5.75;5.15;;;16.70;99.90;;;;;;4991143;28;20507;-70
2021/09/09 05:57:21;;;;;;;5.10;4.60;;;16.70;99.90;;;;;;4990750;28;20452;-72
2021/09/09 05:59:49;;;;;;;6.30;5.55;;;16.80;99.90;;;;;;4991087;28;20070;-68
2021/09/09 06:02:17;;;;;;;7.30;6.60;;;16.80;99.90;;;;;;4989712;28;20113;-71
2021/09/09 06:04:47;;;;;;;9.75;7.75;;;16.80;99.90;;;;;;4990744;28;20428;-70
2021/09/09 06:07:14;;;;;;;10.55;6.80;;;16.90;99.90;;;;;;4990725;28;20057;-70
2021/09/09 06:09:41;;;;;;;10.07;7.65;;;16.90;99.90;;;;;;4991079;28;20050;-71
2021/09/09 06:12:08;;;;;;;8.98;7.65;;;16.90;99.90;;;;;;4989101;28;20054;-74
2021/09/09 06:14:35;;;;;;;10.85;8.50;;;16.90;99.90;;;;;;4990626;28;20392;-73
2021/09/09 06:17:03;;;;;;;10.90;9.55;;;17.00;99.90;;;;;;4989475;28;20107;-75
2021/09/09 06:19:30;;;;;;;8.75;7.70;;;17.00;99.90;;;;;;4990818;28;20123;-68
2021/09/09 06:21:58;;;;;;;15.55;8.15;;;17.00;99.90;;;;;;4988978;28;20385;-69
2021/09/09 06:24:25;;;;;;;9.23;8.05;;;17.00;99.90;;;;;;4990242;28;20094;-69
2021/09/09 06:26:53;;;;;;;7.18;6.47;;;17.10;99.90;;;;;;4990513;28;20196;-70
2021/09/09 06:29:20;;;;;;;7.57;6.32;;;17.10;99.90;;;;;;4990425;28;20050;-70
2021/09/09 06:31:47;;;;;;;8.05;6.90;;;17.20;99.90;;;;;;4990558;28;20089;-73
2021/09/09 06:34:14;;;;;;;10.88;7.18;;;17.20;99.90;;;;;;4989700;28;20046;-67
2021/09/09 06:36:41;;;;;;;8.23;7.40;;;17.30;99.90;;;;;;4990463;28;20101;-68
2021/09/09 06:39:08;;;;;;;7.60;6.55;;;17.30;99.90;;;;;;4990124;28;20400;-71
2021/09/09 06:41:35;;;;;;;8.32;6.72;;;17.40;99.90;;;;;;4990584;28;20050;-72
2021/09/09 06:44:06;;;;;;;7.60;6.90;;;17.40;99.90;;;;;;5022508;28;20049;-68
2021/09/09 06:46:33;;;;;;;7.30;6.55;;;17.40;99.90;;;;;;5010714;28;20045;-66
2021/09/09 06:48:59;;;;;;;9.68;6.50;;;17.50;99.90;;;;;;5010056;28;20052;-70
2021/09/09 06:51:26;;;;;;;6.70;6.00;;;17.50;99.90;;;;;;5010203;28;20046;-75
2021/09/09 06:53:53;;;;;;;7.22;6.60;;;17.60;99.90;;;;;;5008830;28;20120;-67
2021/09/09 06:56:20;;;;;;;7.28;5.22;;;17.60;99.90;;;;;;5009681;28;20070;-70
2021/09/09 06:58:47;;;;;;;7.45;5.93;;;17.70;99.90;;;;;;5010208;28;20108;-76
2021/09/09 07:01:15;;;;;;;8.85;6.15;;;17.70;99.90;;;;;;5010297;28;20050;-70
2021/09/09 07:03:42;;;;;;;6.35;5.57;;;17.70;99.90;;;;;;5010381;28;20456;-69
2021/09/09 07:06:09;;;;;;;9.05;6.03;;;17.80;99.90;;;;;;5008274;28;20056;-70
2021/09/09 07:08:37;;;;;;;6.35;5.70;;;17.90;99.90;;;;;;5010421;28;20415;-71
2021/09/09 07:11:04;;;;;;;12.18;5.68;;;17.90;99.90;;;;;;5010184;28;20460;-70
2021/09/09 07:13:31;;;;;;;7.40;5.63;;;18.00;99.90;;;;;;5010487;28;20100;-70
2021/09/09 07:15:59;;;;;;;6.45;5.90;;;18.00;99.90;;;;;;5009195;28;20046;-68
2021/09/09 07:18:28;;;;;;;7.32;5.15;;;18.10;99.90;;;;;;5010189;28;20045;-71
2021/09/09 07:20:55;;;;;;;5.90;4.75;;;18.20;99.90;;;;;;5010328;28;20456;-68
2021/09/09 07:23:22;;;;;;;6.82;4.75;;;18.20;99.90;;;;;;5010162;28;20077;-69
2021/09/09 07:25:50;;;;;;;4.18;3.88;;;18.30;99.90;;;;;;5009457;28;20120;-68
2021/09/09 07:28:17;;;;;;;5.72;4.18;;;18.30;99.90;;;;;;5010177;28;20065;-72
2021/09/09 07:30:44;;;;;;;5.47;3.88;;;18.40;99.90;;;;;;5009838;28;20053;-70
2021/09/09 07:33:11;;;;;;;4.28;3.88;;;18.40;99.90;;;;;;5009955;28;20057;-73
2021/09/09 07:35:38;;;;;;;4.28;3.83;;;18.50;99.90;;;;;;5009723;28;20058;-69
2021/09/09 07:38:05;;;;;;;3.70;3.25;;;18.50;99.90;;;;;;5008493;28;20519;-71
2021/09/09 07:40:32;;;;;;;4.75;3.08;;;18.60;99.90;;;;;;5010100;28;20488;-70
2021/09/09 07:43:00;;;;;;;5.75;3.88;;;18.60;99.90;;;;;;5010000;28;20050;-70
2021/09/09 07:45:29;;;;;;;6.25;3.33;;;18.60;99.90;;;;;;5009878;28;20536;-70
2021/09/09 07:47:56;;;;;;;3.53;3.10;;;18.70;99.90;;;;;;5008185;28;20054;-69
2021/09/09 07:50:23;;;;;;;3.67;3.08;;;18.80;99.90;;;;;;5009817;28;20168;-69
2021/09/09 07:52:50;;;;;;;6.18;4.40;;;18.80;99.90;;;;;;5009715;28;20058;-68
2021/09/09 07:55:18;;;;;;;4.25;3.50;;;18.80;99.90;;;;;;5010016;28;20058;-70
2021/09/09 07:57:45;;;;;;;3.92;3.50;;;18.80;99.90;;;;;;5010037;28;20049;-71
2021/09/09 08:00:14;;;;;;;4.18;2.60;;;18.90;99.90;;;;;;5008572;28;20089;-68
2021/09/09 08:02:41;;;;;;;3.72;2.78;;;19.00;99.90;;;;;;5007765;28;20097;-73
2021/09/09 08:05:09;;;;;;;5.03;3.00;;;19.00;99.90;;;;;;5009705;28;20467;-68
2021/09/09 08:07:43;;;;;;;4.50;2.85;;;19.00;99.90;;;;;;5010071;28;20481;-71
2021/09/09 08:10:13;;;;;;;4.35;3.35;;;19.00;99.90;;;;;;5011861;28;20456;-70
2021/09/09 08:12:45;;;;;;;4.60;2.83;;;19.00;99.90;;;;;;5013081;28;20439;-75
2021/09/09 08:15:13;;;;;;;3.47;3.17;;;19.10;99.90;;;;;;5013393;28;20104;-68
2021/09/09 08:17:40;;;;;;;4.60;3.33;;;19.20;99.90;;;;;;5013311;28;20073;-70
2021/09/09 08:20:08;;;;;;;4.65;3.85;;;19.30;99.90;;;;;;5011619;28;20049;-73
2021/09/09 08:22:37;;;;;;;7.10;3.60;;;19.30;99.90;;;;;;5012860;28;20042;-75
2021/09/09 08:25:05;;;;;;;3.63;3.13;;;19.40;99.90;;;;;;5012930;28;20049;-71
2021/09/09 08:27:32;;;;;;;2.97;2.67;;;19.40;99.90;;;;;;5013130;28;20057;-67
2021/09/09 08:29:59;;;;;;;2.35;2.15;;;19.40;99.90;;;;;;5011469;28;20050;-70
2021/09/09 08:32:26;;;;;;;3.95;2.55;;;19.40;99.90;;;;;;5012630;28;20049;-74
2021/09/09 08:34:54;;;;;;;3.67;3.33;;;19.50;99.90;;;;;;5012766;28;20064;-70
2021/09/09 08:37:21;;;;;;;4.10;2.63;;;19.50;99.90;;;;;;5012526;28;20111;-69
2021/09/09 08:39:49;;;;;;;4.50;3.20;;;19.50;99.90;;;;;;5012431;28;20073;-75
2021/09/09 08:42:17;;;;;;;3.50;2.85;;;19.40;99.90;;;;;;5011104;28;20053;-70
2021/09/09 08:44:44;;;;;;;4.00;3.50;;;19.40;99.90;;;;;;5012547;28;20054;-71
2021/09/09 08:47:11;;;;;;;3.97;3.15;;;19.60;99.90;;;;;;5012089;28;20503;-68
2021/09/09 08:49:41;;;;;;;3.38;3.08;;;19.70;99.90;;;;;;5012536;28;20053;-65
2021/09/09 08:52:11;;;;;;;3.47;3.10;;;19.70;99.90;;;;;;5011517;28;20468;-73
2021/09/09 08:54:38;;;;;;;3.63;2.50;;;19.70;99.90;;;;;;5012411;28;20049;-69
2021/09/09 08:57:06;;;;;;;2.67;2.35;;;19.80;99.90;;;;;;5012447;28;20046;-69
2021/09/09 08:59:34;;;;;;;3.42;1.88;;;19.90;99.90;;;;;;5012199;28;20104;-67
2021/09/09 09:02:08;;;;;;;1.92;1.65;;;20.00;99.90;;;;;;5010886;28;20096;-69
2021/09/09 09:04:37;;;;;;;2.85;2.15;;;20.10;99.90;;;;;;5012294;28;20453;-67
2021/09/09 09:07:08;;;;;;;3.35;1.67;;;20.20;99.90;;;;;;5012203;28;20132;-69
2021/09/09 09:09:36;;;;;;;;;;;20.20;99.90;;;;;;5012780;28;20050;-67
2021/09/09 09:12:08;;;;;;;2.60;2.40;;;20.30;99.90;;;;;;5010771;28;19922;-71
2021/09/09 09:14:36;;;;;;;2.72;1.70;;;20.40;99.90;;;;;;5011693;28;20042;-68
2021/09/09 09:17:06;;;;;;;3.80;2.10;;;20.40;99.90;;;;;;5012026;28;20432;-72
2021/09/09 09:19:39;;;;;;;2.15;1.85;;;20.40;99.90;;;;;;5011489;28;20077;-69
2021/09/09 09:22:14;;;;;;;1.77;1.38;;;20.50;99.90;;;;;;5010323;28;20053;-75
2021/09/09 09:24:49;;;;;;;3.47;2.40;;;20.50;99.90;;;;;;5012014;28;20050;-71
2021/09/09 09:27:18;;;;;;;3.90;1.33;;;20.50;99.90;;;;;;5011700;28;20099;-71
2021/09/09 09:30:09;;;;;;;2.08;1.88;;;20.60;99.90;;;;;;5011331;28;20444;-74
2021/09/09 09:32:45;;;;;;;2.90;2.08;;;20.50;99.90;;;;;;5025610;28;20046;-68
2021/09/09 09:35:17;;;;;;;1.90;1.75;;;20.50;99.90;;;;;;5011692;28;20124;-75
2021/09/09 09:37:51;;;;;;;3.00;2.22;;;20.60;99.90;;;;;;5011162;28;20069;-71
2021/09/09 09:40:28;;;;;;;2.13;1.85;;;20.70;99.90;;;;;;5009038;28;20050;-75
2021/09/09 09:43:05;;;;;;;2.63;1.85;;;20.90;99.90;;;;;;5011311;28;20054;-71
2021/09/09 09:45:32;;;;;;;2.65;1.80;;;20.90;99.90;;;;;;5011527;28;20100;-73
2021/09/09 09:47:59;;;;;;;1.95;1.65;;;21.10;99.90;;;;;;5009507;28;20050;-70
2021/09/09 09:50:26;;;;;;;2.15;1.95;;;21.00;99.90;;;;;;5010658;28;20046;-70
2021/09/09 09:53:16;;;;;;;2.28;2.08;;;20.90;99.90;;;;;;5010873;28;20056;-68
2021/09/09 09:55:45;;;;;;;3.47;2.05;;;20.90;99.90;;;;;;5011282;28;20109;-69
2021/09/09 09:58:13;;;;;;;2.78;2.45;;;20.90;99.90;;;;;;5009625;28;20046;-68
2021/09/09 10:00:40;;;;;;;2.63;2.40;;;21.00;99.90;;;;;;5010548;28;20081;-72
2021/09/09 10:03:08;;;;;;;2.50;2.30;;;21.00;99.90;;;;;;5010589;28;20492;-68
2021/09/09 10:05:39;;;;;;;4.05;2.67;;;20.90;99.90;;;;;;5010939;28;20050;-67
2021/09/09 10:08:08;;;;;;;3.35;2.05;;;20.90;99.90;;;;;;5009219;28;20041;-68
2021/09/09 10:10:36;;;;;;;5.28;2.83;;;21.00;99.90;;;;;;5010717;28;20045;-67
2021/09/09 10:13:04;;;;;;;3.03;2.78;;;21.00;99.90;;;;;;5026553;28;20062;-77
2021/09/09 10:15:35;;;;;;;4.07;3.28;;;21.00;99.90;;;;;;5012665;28;20125;-73
2021/09/09 10:18:04;;;;;;;2.92;2.70;;;21.00;99.90;;;;;;5008405;28;20088;-73
2021/09/09 10:20:43;;;;;;;4.28;3.00;;;21.10;99.90;;;;;;5009972;28;20065;-71
2021/09/09 10:23:13;;;;;;;3.80;3.10;;;21.20;99.90;;;;;;5010216;28;20045;-69
2021/09/09 10:25:54;;;;;;;3.78;3.42;;;21.30;99.90;;;;;;5009811;28;20053;-72
2021/09/09 10:28:33;;;;;;;3.28;2.42;;;21.30;99.90;;;;;;5008844;28;20054;-72
2021/09/09 10:31:02;;;;;;;3.10;2.80;;;21.20;99.90;;;;;;5008904;28;20056;-72
2021/09/09 10:33:30;;;;;;;8.10;4.13;;;21.20;99.90;;;;;;5009987;28;20068;-70
2021/09/09 10:35:58;;;;;;;2.95;2.45;;;21.30;99.90;;;;;;5008736;28;20440;-69
2021/09/09 10:38:28;;;;;;;2.95;2.67;;;21.20;99.90;;;;;;5009570;28;20100;-70
2021/09/09 10:40:56;;;;;;;;;;;21.30;99.90;;;;;;5010145;28;20123;-72
2021/09/09 10:43:23;;;;;;;3.67;2.42;;;21.40;99.90;;;;;;5009864;28;20306;-69
2021/09/09 10:46:05;;;;;;;2.50;2.30;;;21.50;99.90;;;;;;5008447;28;20062;-72
2021/09/09 10:48:33;;;;;;;3.33;1.88;;;21.60;99.90;;;;;;5008052;28;20046;-74
2021/09/09 10:51:06;;;;;;;3.03;2.22;;;21.60;99.90;;;;;;5009993;28;20134;-70
2021/09/09 10:53:53;;;;;;;2.75;2.45;;;21.70;99.90;;;;;;5009940;28;20054;-71
2021/09/09 10:56:36;;;;;;;2.38;2.03;;;21.80;99.90;;;;;;5012286;28;20048;-69
2021/09/09 10:59:06;;;;;;;1.60;1.50;;;21.80;99.90;;;;;;5009504;28;20053;-71
2021/09/09 11:01:33;;;;;;;4.05;1.77;;;21.90;99.90;;;;;;5009331;28;20104;-66
2021/09/09 11:04:01;;;;;;;2.35;2.15;;;21.90;99.90;;;;;;5007839;28;20560;-68
2021/09/09 11:06:31;;;;;;;2.55;1.90;;;22.10;99.90;;;;;;5009539;28;20104;-66
2021/09/09 11:09:12;;;;;;;2.95;2.42;;;22.10;99.90;;;;;;5009663;28;20428;-71
2021/09/09 11:11:45;;;;;;;3.45;1.73;;;22.10;99.90;;;;;;5009460;28;20054;-76
2021/09/09 11:14:14;;;;;;;2.03;1.63;;;22.10;99.90;;;;;;5007958;28;20115;-69
2021/09/09 11:16:41;;;;;;;2.33;2.10;;;22.10;99.90;;;;;;5009542;28;20057;-69
2021/09/09 11:19:09;;;;;;;5.75;2.33;;;22.20;99.90;;;;;;5009474;28;20104;-68
2021/09/09 11:21:40;;;;;;;5.63;2.20;;;22.30;99.90;;;;;;5009112;28;20046;-75
2021/09/09 11:24:12;;;;;;;2.85;1.65;;;22.30;99.90;;;;;;5009983;28;20112;-69
2021/09/09 11:26:41;;;;;;;1.92;1.83;;;22.20;99.90;;;;;;5010068;28;20424;-70
2021/09/09 11:29:09;;;;;;;3.63;2.75;;;22.20;99.90;;;;;;5009262;28;20049;-65
2021/09/09 11:31:58;;;;;;;2.25;1.90;;;22.20;99.90;;;;;;5008994;28;20046;-66
2021/09/09 11:34:30;;;;;;;3.72;1.90;;;22.30;99.90;;;;;;5007917;28;20310;-67
2021/09/09 11:37:02;;;;;;;3.50;1.95;;;22.40;99.90;;;;;;5009342;28;20100;-76
2021/09/09 11:39:33;;;;;;;2.75;1.60;;;22.30;99.90;;;;;;5009114;28;20041;-70
2021/09/09 11:42:04;;;;;;;2.38;1.60;;;22.30;99.90;;;;;;5009026;28;20476;-72
2021/09/09 11:44:39;;;;;;;1.88;1.60;;;22.50;99.90;;;;;;5013489;28;20045;-68
2021/09/09 11:47:12;;;;;;;1.60;1.48;;;22.40;99.90;;;;;;5012923;28;20073;-73
2021/09/09 11:49:39;;;;;;;2.67;1.05;;;22.40;99.90;;;;;;5013085;28;20056;-69
2021/09/09 11:52:07;;;;;;;3.45;1.10;;;22.50;99.90;;;;;;5011429;28;20084;-71
2021/09/09 11:54:37;;;;;;;2.25;1.60;;;22.50;99.90;;;;;;5013011;28;20049;-77
2021/09/09 11:57:05;;;;;;;1.55;1.30;;;22.40;99.90;;;;;;5012927;28;20054;-69
2021/09/09 11:59:35;;;;;;;3.72;1.58;;;22.40;99.90;;;;;;5012861;28;20042;-67
2021/09/09 12:02:11;;;;;;;2.47;1.80;;;22.40;99.90;;;;;;5011878;28;20431;-68
2021/09/09 12:04:40;;;;;;;3.38;1.60;;;22.40;99.90;;;;;;5013033;28;20133;-69
2021/09/09 12:07:09;;;;;;;3.40;1.77;;;22.40;99.90;;;;;;5013024;28;20108;-69
2021/09/09 12:09:51;;;;;;;3.05;2.60;;;22.50;99.90;;;;;;5013512;28;20084;-72
2021/09/09 12:12:18;;;;;;;3.58;2.92;;;22.50;99.90;;;;;;5012080;28;20042;-69
2021/09/09 12:15:01;;;;;;;3.15;2.47;;;22.50;99.90;;;;;;5013285;28;20108;-69
2021/09/09 12:17:29;;;;;;;3.67;2.80;;;22.50;99.90;;;;;;5012890;28;20116;-70
2021/09/09 12:20:06;;;;;;;3.47;3.00;;;22.60;99.90;;;;;;5011647;28;20090;-66
2021/09/09 12:22:52;;;;;;;2.85;2.58;;;22.60;99.90;;;;;;5012754;28;20403;-71
2021/09/09 12:25:28;;;;;;;5.20;3.28;;;22.60;99.90;;;;;;5012978;28;20096;-72
2021/09/09 12:28:07;;;;;;;8.68;4.30;;;22.70;99.90;;;;;;5011395;28;20129;-65
2021/09/09 12:30:36;;;;;;;4.60;4.10;;;22.70;99.90;;;;;;5028113;28;20041;-72
2021/09/09 12:33:14;;;;;;;6.30;4.70;;;22.70;99.90;;;;;;5012798;28;20100;-69
2021/09/09 12:36:12;;;;;;;5.18;4.68;;;22.70;99.90;;;;;;5012997;28;20346;-71
2021/09/09 12:38:41;;;;;;;5.63;5.07;;;22.70;99.90;;;;;;5011539;28;20472;-72
2021/09/09 12:41:24;;;;;;;5.65;4.47;;;22.60;99.90;;;;;;5012553;28;20060;-67
2021/09/09 12:43:54;;;;;;;8.02;5.20;;;22.60;99.90;;;;;;5011197;28;20054;-72
2021/09/09 12:46:37;;;;;;;10.48;8.35;;;22.50;99.90;;;;;;5012750;28;20435;-69
2021/09/09 12:49:07;;;;;;;6.07;5.38;;;22.60;99.90;;;;;;5012922;28;20077;-66